sensor_id;sensor_type;location;lat;lon;timestamp;P1;durP1;ratioP1;P2;durP2;ratioP2
44130;SDS011;29792;48.726;9.248;2023-07-02T00:02:21;3.75;;;2.45;;
44130;SDS011;29792;48.726;9.248;2023-07-02T00:04:47;2.97;;;2.33;;
44130;SDS011;29792;48.726;9.248;2023-07-02T00:07:12;1.67;;;1.58;;
44130;SDS011;29792;48.726;9.248;2023-07-02T00:09:39;3.35;;;1.85;;
44130;SDS011;29792;48.726;9.248;2023-07-02T00:12:05;2.53;;;1.70;;
44130;SDS011;29792;48.726;9.248;2023-07-02T00:14:31;2.95;;;2.28;;
44130;SDS011;29792;48.726;9.248;2023-07-02T00:16:56;3.35;;;2.05;;
44130;SDS011;29792;48.726;9.248;2023-07-02T00:19:21;2.38;;;1.73;;
44130;SDS011;29792;48.726;9.248;2023-07-02T00:21:46;3.10;;;1.75;;
44130;SDS011;29792;48.726;9.248;2023-07-02T00:24:12;3.15;;;2.10;;
44130;SDS011;29792;48.726;9.248;2023-07-02T00:26:38;3.88;;;2.83;;
44130;SDS011;29792;48.726;9.248;2023-07-02T00:29:05;1.95;;;1.75;;
44130;SDS011;29792;48.726;9.248;2023-07-02T00:31:31;1.70;;;1.27;;
44130;SDS011;29792;48.726;9.248;2023-07-02T00:33:57;1.88;;;1.50;;
44130;SDS011;29792;48.726;9.248;2023-07-02T00:36:22;2.60;;;1.80;;
44130;SDS011;29792;48.726;9.248;2023-07-02T00:38:48;2.13;;;1.85;;
44130;SDS011;29792;48.726;9.248;2023-07-02T00:41:14;3.55;;;2.13;;
44130;SDS011;29792;48.726;9.248;2023-07-02T00:43:40;3.97;;;1.83;;
44130;SDS011;29792;48.726;9.248;2023-07-02T00:46:09;2.20;;;1.70;;
44130;SDS011;29792;48.726;9.248;2023-07-02T00:48:38;1.80;;;1.50;;
44130;SDS011;29792;48.726;9.248;2023-07-02T00:51:04;2.63;;;1.42;;
44130;SDS011;29792;48.726;9.248;2023-07-02T00:53:30;3.58;;;1.60;;
44130;SDS011;29792;48.726;9.248;2023-07-02T00:55:57;3.38;;;1.63;;
44130;SDS011;29792;48.726;9.248;2023-07-02T00:58:22;2.15;;;1.60;;
44130;SDS011;29792;48.726;9.248;2023-07-02T01:00:48;1.60;;;1.50;;
44130;SDS011;29792;48.726;9.248;2023-07-02T01:03:13;3.33;;;1.50;;
44130;SDS011;29792;48.726;9.248;2023-07-02T01:05:38;2.58;;;2.08;;
44130;SDS011;29792;48.726;9.248;2023-07-02T01:08:06;2.85;;;1.60;;
44130;SDS011;29792;48.726;9.248;2023-07-02T01:10:32;2.55;;;1.65;;
44130;SDS011;29792;48.726;9.248;2023-07-02T01:13:00;2.45;;;1.30;;
44130;SDS011;29792;48.726;9.248;2023-07-02T01:15:29;3.00;;;1.77;;
44130;SDS011;29792;48.726;9.248;2023-07-02T01:17:56;2.97;;;2.22;;
44130;SDS011;29792;48.726;9.248;2023-07-02T01:20:22;4.03;;;1.60;;
44130;SDS011;29792;48.726;9.248;2023-07-02T01:22:51;1.35;;;1.20;;
44130;SDS011;29792;48.726;9.248;2023-07-02T01:25:17;3.17;;;1.90;;
44130;SDS011;29792;48.726;9.248;2023-07-02T01:27:43;2.25;;;1.65;;
44130;SDS011;29792;48.726;9.248;2023-07-02T01:30:09;2.90;;;1.85;;
44130;SDS011;29792;48.726;9.248;2023-07-02T01:32:35;2.53;;;1.73;;
44130;SDS011;29792;48.726;9.248;2023-07-02T01:35:02;3.90;;;1.90;;
44130;SDS011;29792;48.726;9.248;2023-07-02T01:37:27;2.03;;;1.80;;
44130;SDS011;29792;48.726;9.248;2023-07-02T01:39:52;3.35;;;2.22;;
44130;SDS011;29792;48.726;9.248;2023-07-02T01:42:18;3.63;;;1.38;;
44130;SDS011;29792;48.726;9.248;2023-07-02T01:44:45;4.20;;;1.83;;
44130;SDS011;29792;48.726;9.248;2023-07-02T01:47:16;4.32;;;1.85;;
44130;SDS011;29792;48.726;9.248;2023-07-02T01:49:41;2.92;;;2.03;;
44130;SDS011;29792;48.726;9.248;2023-07-02T01:52:07;2.17;;;1.85;;
44130;SDS011;29792;48.726;9.248;2023-07-02T01:54:33;2.20;;;1.92;;
44130;SDS011;29792;48.726;9.248;2023-07-02T01:57:00;2.75;;;1.77;;
44130;SDS011;29792;48.726;9.248;2023-07-02T01:59:25;2.33;;;1.58;;
44130;SDS011;29792;48.726;9.248;2023-07-02T02:01:51;2.63;;;2.03;;
44130;SDS011;29792;48.726;9.248;2023-07-02T02:04:17;4.25;;;1.77;;
44130;SDS011;29792;48.726;9.248;2023-07-02T02:06:43;3.05;;;1.98;;
44130;SDS011;29792;48.726;9.248;2023-07-02T02:09:08;3.75;;;1.50;;
44130;SDS011;29792;48.726;9.248;2023-07-02T02:11:42;1.50;;;1.40;;
44130;SDS011;29792;48.726;9.248;2023-07-02T02:14:08;3.40;;;1.92;;
44130;SDS011;29792;48.726;9.248;2023-07-02T02:16:33;1.88;;;1.67;;
44130;SDS011;29792;48.726;9.248;2023-07-02T02:18:59;2.95;;;2.65;;
44130;SDS011;29792;48.726;9.248;2023-07-02T02:21:24;2.53;;;2.22;;
44130;SDS011;29792;48.726;9.248;2023-07-02T02:23:50;8.35;;;2.53;;
44130;SDS011;29792;48.726;9.248;2023-07-02T02:26:15;1.77;;;1.63;;
44130;SDS011;29792;48.726;9.248;2023-07-02T02:28:42;1.80;;;1.48;;
44130;SDS011;29792;48.726;9.248;2023-07-02T02:31:07;2.05;;;1.52;;
44130;SDS011;29792;48.726;9.248;2023-07-02T02:33:33;2.58;;;1.50;;
44130;SDS011;29792;48.726;9.248;2023-07-02T02:36:00;2.78;;;2.22;;
44130;SDS011;29792;48.726;9.248;2023-07-02T02:38:25;2.10;;;1.60;;
44130;SDS011;29792;48.726;9.248;2023-07-02T02:40:50;1.60;;;1.50;;
44130;SDS011;29792;48.726;9.248;2023-07-02T02:43:15;2.05;;;1.38;;
44130;SDS011;29792;48.726;9.248;2023-07-02T02:45:45;2.17;;;1.67;;
44130;SDS011;29792;48.726;9.248;2023-07-02T02:48:11;4.68;;;1.30;;
44130;SDS011;29792;48.726;9.248;2023-07-02T02:50:36;1.92;;;1.50;;
44130;SDS011;29792;48.726;9.248;2023-07-02T02:53:06;1.98;;;1.55;;
44130;SDS011;29792;48.726;9.248;2023-07-02T02:55:37;3.60;;;1.90;;
44130;SDS011;29792;48.726;9.248;2023-07-02T02:58:03;4.10;;;1.65;;
44130;SDS011;29792;48.726;9.248;2023-07-02T03:00:28;2.08;;;1.27;;
44130;SDS011;29792;48.726;9.248;2023-07-02T03:02:53;1.70;;;1.35;;
44130;SDS011;29792;48.726;9.248;2023-07-02T03:05:20;2.28;;;1.50;;
44130;SDS011;29792;48.726;9.248;2023-07-02T03:07:46;2.65;;;1.77;;
44130;SDS011;29792;48.726;9.248;2023-07-02T03:10:11;1.77;;;1.65;;
44130;SDS011;29792;48.726;9.248;2023-07-02T03:12:36;2.40;;;1.42;;
44130;SDS011;29792;48.726;9.248;2023-07-02T03:15:04;1.70;;;1.33;;
44130;SDS011;29792;48.726;9.248;2023-07-02T03:17:29;1.48;;;1.23;;
44130;SDS011;29792;48.726;9.248;2023-07-02T03:19:54;3.20;;;1.75;;
44130;SDS011;29792;48.726;9.248;2023-07-02T03:22:20;5.53;;;2.90;;
44130;SDS011;29792;48.726;9.248;2023-07-02T03:24:45;2.50;;;1.65;;
44130;SDS011;29792;48.726;9.248;2023-07-02T03:27:10;2.17;;;1.70;;
44130;SDS011;29792;48.726;9.248;2023-07-02T03:29:36;4.10;;;3.00;;
44130;SDS011;29792;48.726;9.248;2023-07-02T03:32:03;2.17;;;1.75;;
44130;SDS011;29792;48.726;9.248;2023-07-02T03:34:28;1.98;;;1.63;;
44130;SDS011;29792;48.726;9.248;2023-07-02T03:36:54;3.40;;;1.67;;
44130;SDS011;29792;48.726;9.248;2023-07-02T03:39:19;2.30;;;1.70;;
44130;SDS011;29792;48.726;9.248;2023-07-02T03:41:45;3.92;;;2.22;;
44130;SDS011;29792;48.726;9.248;2023-07-02T03:44:10;3.08;;;2.08;;
44130;SDS011;29792;48.726;9.248;2023-07-02T03:46:35;1.98;;;1.77;;
44130;SDS011;29792;48.726;9.248;2023-07-02T03:49:02;4.63;;;1.92;;
44130;SDS011;29792;48.726;9.248;2023-07-02T03:51:28;2.55;;;1.65;;
44130;SDS011;29792;48.726;9.248;2023-07-02T03:53:53;2.70;;;1.90;;
44130;SDS011;29792;48.726;9.248;2023-07-02T03:56:18;3.05;;;1.73;;
44130;SDS011;29792;48.726;9.248;2023-07-02T03:58:43;2.05;;;1.50;;
44130;SDS011;29792;48.726;9.248;2023-07-02T04:01:09;3.97;;;2.42;;
44130;SDS011;29792;48.726;9.248;2023-07-02T04:03:34;5.38;;;1.90;;
44130;SDS011;29792;48.726;9.248;2023-07-02T04:05:59;4.45;;;2.10;;
44130;SDS011;29792;48.726;9.248;2023-07-02T04:08:25;2.92;;;2.35;;
44130;SDS011;29792;48.726;9.248;2023-07-02T04:10:50;4.78;;;2.15;;
44130;SDS011;29792;48.726;9.248;2023-07-02T04:13:16;3.58;;;3.03;;
44130;SDS011;29792;48.726;9.248;2023-07-02T04:15:41;2.90;;;2.30;;
44130;SDS011;29792;48.726;9.248;2023-07-02T04:18:07;3.90;;;2.33;;
44130;SDS011;29792;48.726;9.248;2023-07-02T04:20:32;4.15;;;2.63;;
44130;SDS011;29792;48.726;9.248;2023-07-02T04:22:57;2.55;;;2.05;;
44130;SDS011;29792;48.726;9.248;2023-07-02T04:25:23;7.50;;;3.03;;
44130;SDS011;29792;48.726;9.248;2023-07-02T04:27:48;2.95;;;2.67;;
44130;SDS011;29792;48.726;9.248;2023-07-02T04:30:13;3.85;;;2.80;;
44130;SDS011;29792;48.726;9.248;2023-07-02T04:32:39;4.30;;;2.28;;
44130;SDS011;29792;48.726;9.248;2023-07-02T04:35:05;3.55;;;3.15;;
44130;SDS011;29792;48.726;9.248;2023-07-02T04:37:31;5.85;;;3.95;;
44130;SDS011;29792;48.726;9.248;2023-07-02T04:39:56;3.90;;;2.78;;
44130;SDS011;29792;48.726;9.248;2023-07-02T04:42:22;4.20;;;2.97;;
44130;SDS011;29792;48.726;9.248;2023-07-02T04:44:52;4.53;;;3.45;;
44130;SDS011;29792;48.726;9.248;2023-07-02T04:47:18;5.65;;;2.65;;
44130;SDS011;29792;48.726;9.248;2023-07-02T04:49:44;5.68;;;3.00;;
44130;SDS011;29792;48.726;9.248;2023-07-02T04:52:09;6.60;;;2.78;;
44130;SDS011;29792;48.726;9.248;2023-07-02T04:54:34;5.65;;;3.90;;
44130;SDS011;29792;48.726;9.248;2023-07-02T04:56:59;4.80;;;3.00;;
44130;SDS011;29792;48.726;9.248;2023-07-02T04:59:25;5.75;;;3.00;;
44130;SDS011;29792;48.726;9.248;2023-07-02T05:01:50;5.18;;;2.95;;
44130;SDS011;29792;48.726;9.248;2023-07-02T05:04:15;4.30;;;2.25;;
44130;SDS011;29792;48.726;9.248;2023-07-02T05:06:40;3.20;;;2.90;;
44130;SDS011;29792;48.726;9.248;2023-07-02T05:09:06;3.50;;;2.53;;
44130;SDS011;29792;48.726;9.248;2023-07-02T05:11:31;3.97;;;2.78;;
44130;SDS011;29792;48.726;9.248;2023-07-02T05:13:56;5.95;;;2.35;;
44130;SDS011;29792;48.726;9.248;2023-07-02T05:16:21;3.75;;;2.92;;
44130;SDS011;29792;48.726;9.248;2023-07-02T05:18:47;3.75;;;2.33;;
44130;SDS011;29792;48.726;9.248;2023-07-02T05:21:12;5.00;;;2.85;;
44130;SDS011;29792;48.726;9.248;2023-07-02T05:23:42;3.53;;;2.45;;
44130;SDS011;29792;48.726;9.248;2023-07-02T05:26:07;7.53;;;2.38;;
44130;SDS011;29792;48.726;9.248;2023-07-02T05:28:32;2.78;;;1.83;;
44130;SDS011;29792;48.726;9.248;2023-07-02T05:30:58;5.57;;;1.92;;
44130;SDS011;29792;48.726;9.248;2023-07-02T05:33:23;3.90;;;1.90;;
44130;SDS011;29792;48.726;9.248;2023-07-02T05:35:48;4.20;;;2.25;;
44130;SDS011;29792;48.726;9.248;2023-07-02T05:38:13;4.03;;;1.80;;
44130;SDS011;29792;48.726;9.248;2023-07-02T05:40:39;4.05;;;2.15;;
44130;SDS011;29792;48.726;9.248;2023-07-02T05:43:04;5.47;;;3.13;;
44130;SDS011;29792;48.726;9.248;2023-07-02T05:45:29;5.53;;;2.88;;
44130;SDS011;29792;48.726;9.248;2023-07-02T05:47:55;4.82;;;2.78;;
44130;SDS011;29792;48.726;9.248;2023-07-02T05:50:20;4.32;;;3.50;;
44130;SDS011;29792;48.726;9.248;2023-07-02T05:52:45;4.68;;;2.58;;
44130;SDS011;29792;48.726;9.248;2023-07-02T05:55:11;4.65;;;2.28;;
44130;SDS011;29792;48.726;9.248;2023-07-02T05:57:37;4.80;;;3.15;;
44130;SDS011;29792;48.726;9.248;2023-07-02T06:00:05;5.35;;;2.85;;
44130;SDS011;29792;48.726;9.248;2023-07-02T06:02:31;6.35;;;3.45;;
44130;SDS011;29792;48.726;9.248;2023-07-02T06:04:57;6.95;;;3.15;;
44130;SDS011;29792;48.726;9.248;2023-07-02T06:07:22;5.15;;;2.83;;
44130;SDS011;29792;48.726;9.248;2023-07-02T06:09:49;5.72;;;2.90;;
44130;SDS011;29792;48.726;9.248;2023-07-02T06:12:14;4.20;;;3.15;;
44130;SDS011;29792;48.726;9.248;2023-07-02T06:14:39;7.10;;;3.97;;
44130;SDS011;29792;48.726;9.248;2023-07-02T06:17:05;5.85;;;3.40;;
44130;SDS011;29792;48.726;9.248;2023-07-02T06:19:32;6.07;;;3.20;;
44130;SDS011;29792;48.726;9.248;2023-07-02T06:21:57;5.07;;;2.90;;
44130;SDS011;29792;48.726;9.248;2023-07-02T06:24:23;5.22;;;2.80;;
44130;SDS011;29792;48.726;9.248;2023-07-02T06:26:48;5.60;;;3.50;;
44130;SDS011;29792;48.726;9.248;2023-07-02T06:29:14;7.93;;;3.92;;
44130;SDS011;29792;48.726;9.248;2023-07-02T06:31:39;5.90;;;4.32;;
44130;SDS011;29792;48.726;9.248;2023-07-02T06:34:05;6.85;;;4.60;;
44130;SDS011;29792;48.726;9.248;2023-07-02T06:36:30;9.43;;;6.00;;
44130;SDS011;29792;48.726;9.248;2023-07-02T06:38:55;9.73;;;5.50;;
44130;SDS011;29792;48.726;9.248;2023-07-02T06:41:20;9.10;;;5.85;;
44130;SDS011;29792;48.726;9.248;2023-07-02T06:43:46;9.48;;;5.25;;
44130;SDS011;29792;48.726;9.248;2023-07-02T06:46:11;8.77;;;5.28;;
44130;SDS011;29792;48.726;9.248;2023-07-02T06:48:37;9.07;;;5.32;;
44130;SDS011;29792;48.726;9.248;2023-07-02T06:51:02;8.15;;;5.45;;
44130;SDS011;29792;48.726;9.248;2023-07-02T06:53:27;8.20;;;5.95;;
44130;SDS011;29792;48.726;9.248;2023-07-02T06:55:52;11.45;;;5.97;;
44130;SDS011;29792;48.726;9.248;2023-07-02T06:58:18;8.93;;;5.07;;
44130;SDS011;29792;48.726;9.248;2023-07-02T07:00:43;12.43;;;6.93;;
44130;SDS011;29792;48.726;9.248;2023-07-02T07:03:08;10.30;;;6.82;;
44130;SDS011;29792;48.726;9.248;2023-07-02T07:05:33;11.85;;;6.60;;
44130;SDS011;29792;48.726;9.248;2023-07-02T07:07:59;13.57;;;6.90;;
44130;SDS011;29792;48.726;9.248;2023-07-02T07:10:28;14.52;;;7.32;;
44130;SDS011;29792;48.726;9.248;2023-07-02T07:12:58;12.68;;;8.10;;
44130;SDS011;29792;48.726;9.248;2023-07-02T07:15:24;11.27;;;6.82;;
44130;SDS011;29792;48.726;9.248;2023-07-02T07:17:49;12.07;;;7.57;;
44130;SDS011;29792;48.726;9.248;2023-07-02T07:20:14;17.35;;;8.30;;
44130;SDS011;29792;48.726;9.248;2023-07-02T07:22:39;13.50;;;7.25;;
44130;SDS011;29792;48.726;9.248;2023-07-02T07:25:05;12.48;;;7.97;;
44130;SDS011;29792;48.726;9.248;2023-07-02T07:27:30;12.32;;;7.22;;
44130;SDS011;29792;48.726;9.248;2023-07-02T07:29:55;12.15;;;8.35;;
44130;SDS011;29792;48.726;9.248;2023-07-02T07:32:21;11.30;;;7.80;;
44130;SDS011;29792;48.726;9.248;2023-07-02T07:34:46;16.00;;;8.38;;
44130;SDS011;29792;48.726;9.248;2023-07-02T07:37:11;11.70;;;7.82;;
44130;SDS011;29792;48.726;9.248;2023-07-02T07:39:37;12.02;;;8.63;;
44130;SDS011;29792;48.726;9.248;2023-07-02T07:42:02;12.45;;;7.40;;
44130;SDS011;29792;48.726;9.248;2023-07-02T07:44:27;11.10;;;7.15;;
44130;SDS011;29792;48.726;9.248;2023-07-02T07:46:54;11.60;;;8.43;;
44130;SDS011;29792;48.726;9.248;2023-07-02T07:49:20;14.48;;;8.40;;
44130;SDS011;29792;48.726;9.248;2023-07-02T07:51:46;13.27;;;8.65;;
44130;SDS011;29792;48.726;9.248;2023-07-02T07:54:11;14.02;;;8.20;;
44130;SDS011;29792;48.726;9.248;2023-07-02T07:56:36;13.35;;;9.15;;
44130;SDS011;29792;48.726;9.248;2023-07-02T07:59:02;18.25;;;9.18;;
44130;SDS011;29792;48.726;9.248;2023-07-02T08:01:27;14.23;;;9.45;;
44130;SDS011;29792;48.726;9.248;2023-07-02T08:03:53;10.93;;;8.30;;
44130;SDS011;29792;48.726;9.248;2023-07-02T08:06:18;18.65;;;9.77;;
44130;SDS011;29792;48.726;9.248;2023-07-02T08:08:43;14.38;;;8.90;;
44130;SDS011;29792;48.726;9.248;2023-07-02T08:11:09;16.30;;;8.60;;
44130;SDS011;29792;48.726;9.248;2023-07-02T08:13:34;13.30;;;8.43;;
44130;SDS011;29792;48.726;9.248;2023-07-02T08:16:00;15.77;;;9.30;;
44130;SDS011;29792;48.726;9.248;2023-07-02T08:18:25;14.50;;;9.00;;
44130;SDS011;29792;48.726;9.248;2023-07-02T08:20:50;14.18;;;8.13;;
44130;SDS011;29792;48.726;9.248;2023-07-02T08:23:15;12.00;;;8.60;;
44130;SDS011;29792;48.726;9.248;2023-07-02T08:25:41;11.90;;;8.02;;
44130;SDS011;29792;48.726;9.248;2023-07-02T08:28:06;14.60;;;9.00;;
44130;SDS011;29792;48.726;9.248;2023-07-02T08:30:31;16.70;;;9.15;;
44130;SDS011;29792;48.726;9.248;2023-07-02T08:32:56;13.20;;;9.25;;
44130;SDS011;29792;48.726;9.248;2023-07-02T08:35:22;15.68;;;8.95;;
44130;SDS011;29792;48.726;9.248;2023-07-02T08:37:47;18.63;;;11.63;;
44130;SDS011;29792;48.726;9.248;2023-07-02T08:40:17;17.02;;;8.75;;
44130;SDS011;29792;48.726;9.248;2023-07-02T08:42:43;16.23;;;9.70;;
44130;SDS011;29792;48.726;9.248;2023-07-02T08:45:10;11.68;;;9.18;;
44130;SDS011;29792;48.726;9.248;2023-07-02T08:47:36;16.05;;;9.15;;
44130;SDS011;29792;48.726;9.248;2023-07-02T08:50:02;13.15;;;8.70;;
44130;SDS011;29792;48.726;9.248;2023-07-02T08:52:28;13.63;;;7.93;;
44130;SDS011;29792;48.726;9.248;2023-07-02T08:54:53;15.02;;;8.93;;
44130;SDS011;29792;48.726;9.248;2023-07-02T08:57:18;13.25;;;8.35;;
44130;SDS011;29792;48.726;9.248;2023-07-02T08:59:44;14.63;;;7.72;;
44130;SDS011;29792;48.726;9.248;2023-07-02T09:02:09;14.75;;;8.77;;
44130;SDS011;29792;48.726;9.248;2023-07-02T09:04:34;13.32;;;8.35;;
44130;SDS011;29792;48.726;9.248;2023-07-02T09:07:04;15.13;;;9.05;;
44130;SDS011;29792;48.726;9.248;2023-07-02T09:09:30;20.00;;;9.63;;
44130;SDS011;29792;48.726;9.248;2023-07-02T09:11:56;12.65;;;7.95;;
44130;SDS011;29792;48.726;9.248;2023-07-02T09:14:24;12.90;;;9.73;;
44130;SDS011;29792;48.726;9.248;2023-07-02T09:17:00;12.32;;;9.02;;
44130;SDS011;29792;48.726;9.248;2023-07-02T09:19:27;11.95;;;8.52;;
44130;SDS011;29792;48.726;9.248;2023-07-02T09:21:52;17.38;;;9.32;;
44130;SDS011;29792;48.726;9.248;2023-07-02T09:24:23;12.52;;;8.57;;
44130;SDS011;29792;48.726;9.248;2023-07-02T09:26:49;16.83;;;8.27;;
44130;SDS011;29792;48.726;9.248;2023-07-02T09:31:55;11.75;;;7.53;;
44130;SDS011;29792;48.726;9.248;2023-07-02T09:34:26;13.40;;;8.82;;
44130;SDS011;29792;48.726;9.248;2023-07-02T09:37:01;11.65;;;7.68;;
44130;SDS011;29792;48.726;9.248;2023-07-02T09:39:28;14.98;;;9.18;;
44130;SDS011;29792;48.726;9.248;2023-07-02T09:41:56;9.65;;;7.30;;
44130;SDS011;29792;48.726;9.248;2023-07-02T09:44:24;12.68;;;9.45;;
44130;SDS011;29792;48.726;9.248;2023-07-02T09:46:58;13.80;;;8.32;;
44130;SDS011;29792;48.726;9.248;2023-07-02T09:49:31;11.95;;;7.72;;
44130;SDS011;29792;48.726;9.248;2023-07-02T09:54:31;10.50;;;8.32;;
44130;SDS011;29792;48.726;9.248;2023-07-02T09:56:57;9.43;;;6.70;;
44130;SDS011;29792;48.726;9.248;2023-07-02T09:59:23;12.90;;;8.77;;
44130;SDS011;29792;48.726;9.248;2023-07-02T10:01:49;13.48;;;7.53;;
44130;SDS011;29792;48.726;9.248;2023-07-02T10:04:15;13.15;;;8.35;;
44130;SDS011;29792;48.726;9.248;2023-07-02T10:06:47;14.30;;;8.30;;
44130;SDS011;29792;48.726;9.248;2023-07-02T10:09:13;16.58;;;9.10;;
44130;SDS011;29792;48.726;9.248;2023-07-02T10:11:38;10.80;;;8.30;;
44130;SDS011;29792;48.726;9.248;2023-07-02T10:14:04;11.63;;;8.45;;
44130;SDS011;29792;48.726;9.248;2023-07-02T10:16:29;13.52;;;8.73;;
44130;SDS011;29792;48.726;9.248;2023-07-02T10:19:07;13.45;;;9.32;;
44130;SDS011;29792;48.726;9.248;2023-07-02T10:21:33;11.10;;;8.52;;
44130;SDS011;29792;48.726;9.248;2023-07-02T10:24:08;15.63;;;9.98;;
44130;SDS011;29792;48.726;9.248;2023-07-02T10:26:34;17.02;;;12.15;;
44130;SDS011;29792;48.726;9.248;2023-07-02T10:29:00;16.80;;;11.35;;
44130;SDS011;29792;48.726;9.248;2023-07-02T10:31:25;24.10;;;14.43;;
44130;SDS011;29792;48.726;9.248;2023-07-02T10:33:51;16.42;;;10.88;;
44130;SDS011;29792;48.726;9.248;2023-07-02T10:36:23;15.63;;;10.05;;
44130;SDS011;29792;48.726;9.248;2023-07-02T10:38:49;17.90;;;12.35;;
44130;SDS011;29792;48.726;9.248;2023-07-02T10:41:26;17.05;;;10.80;;
44130;SDS011;29792;48.726;9.248;2023-07-02T10:43:53;16.80;;;9.30;;
44130;SDS011;29792;48.726;9.248;2023-07-02T10:46:20;24.42;;;9.75;;
44130;SDS011;29792;48.726;9.248;2023-07-02T10:48:55;13.88;;;9.43;;
44130;SDS011;29792;48.726;9.248;2023-07-02T10:53:55;12.48;;;8.65;;
44130;SDS011;29792;48.726;9.248;2023-07-02T10:56:24;14.15;;;10.13;;
44130;SDS011;29792;48.726;9.248;2023-07-02T10:58:51;14.18;;;9.23;;
44130;SDS011;29792;48.726;9.248;2023-07-02T11:01:23;15.90;;;11.82;;
44130;SDS011;29792;48.726;9.248;2023-07-02T11:04:23;15.43;;;10.65;;
44130;SDS011;29792;48.726;9.248;2023-07-02T11:06:41;15.05;;;10.77;;
44130;SDS011;29792;48.726;9.248;2023-07-02T11:09:15;15.07;;;10.15;;
44130;SDS011;29792;48.726;9.248;2023-07-02T11:11:58;14.13;;;9.88;;
44130;SDS011;29792;48.726;9.248;2023-07-02T11:14:33;16.63;;;10.27;;
44130;SDS011;29792;48.726;9.248;2023-07-02T11:17:01;13.05;;;8.88;;
44130;SDS011;29792;48.726;9.248;2023-07-02T11:19:34;14.18;;;9.68;;
44130;SDS011;29792;48.726;9.248;2023-07-02T11:22:01;21.08;;;11.88;;
44130;SDS011;29792;48.726;9.248;2023-07-02T11:24:36;12.90;;;9.93;;
44130;SDS011;29792;48.726;9.248;2023-07-02T11:27:02;11.05;;;8.88;;
44130;SDS011;29792;48.726;9.248;2023-07-02T11:29:30;14.98;;;10.23;;
44130;SDS011;29792;48.726;9.248;2023-07-02T11:32:08;14.23;;;9.43;;
44130;SDS011;29792;48.726;9.248;2023-07-02T11:34:34;12.57;;;9.25;;
44130;SDS011;29792;48.726;9.248;2023-07-02T11:37:00;15.82;;;10.20;;
44130;SDS011;29792;48.726;9.248;2023-07-02T11:39:26;12.25;;;8.43;;
44130;SDS011;29792;48.726;9.248;2023-07-02T11:41:52;8.93;;;7.85;;
44130;SDS011;29792;48.726;9.248;2023-07-02T11:44:17;14.13;;;9.07;;
44130;SDS011;29792;48.726;9.248;2023-07-02T11:46:43;11.80;;;8.65;;
44130;SDS011;29792;48.726;9.248;2023-07-02T11:49:09;15.60;;;8.75;;
44130;SDS011;29792;48.726;9.248;2023-07-02T11:51:35;21.50;;;10.30;;
44130;SDS011;29792;48.726;9.248;2023-07-02T11:54:02;13.70;;;9.18;;
44130;SDS011;29792;48.726;9.248;2023-07-02T11:56:28;11.50;;;8.60;;
44130;SDS011;29792;48.726;9.248;2023-07-02T11:58:53;16.00;;;9.32;;
44130;SDS011;29792;48.726;9.248;2023-07-02T12:01:18;13.77;;;8.45;;
44130;SDS011;29792;48.726;9.248;2023-07-02T12:03:44;12.63;;;8.10;;
44130;SDS011;29792;48.726;9.248;2023-07-02T12:06:09;12.75;;;8.70;;
44130;SDS011;29792;48.726;9.248;2023-07-02T12:08:35;12.88;;;9.27;;
44130;SDS011;29792;48.726;9.248;2023-07-02T12:11:00;11.80;;;8.63;;
44130;SDS011;29792;48.726;9.248;2023-07-02T12:13:25;11.23;;;7.63;;
44130;SDS011;29792;48.726;9.248;2023-07-02T12:15:50;13.75;;;8.35;;
44130;SDS011;29792;48.726;9.248;2023-07-02T12:18:16;12.73;;;8.38;;
44130;SDS011;29792;48.726;9.248;2023-07-02T12:20:42;10.68;;;9.00;;
44130;SDS011;29792;48.726;9.248;2023-07-02T12:23:07;11.45;;;8.95;;
44130;SDS011;29792;48.726;9.248;2023-07-02T12:25:33;10.85;;;8.55;;
44130;SDS011;29792;48.726;9.248;2023-07-02T12:27:58;13.10;;;8.52;;
44130;SDS011;29792;48.726;9.248;2023-07-02T12:30:23;12.40;;;8.98;;
44130;SDS011;29792;48.726;9.248;2023-07-02T12:32:48;12.43;;;8.63;;
44130;SDS011;29792;48.726;9.248;2023-07-02T12:35:14;10.85;;;8.32;;
44130;SDS011;29792;48.726;9.248;2023-07-02T12:37:43;13.00;;;8.40;;
44130;SDS011;29792;48.726;9.248;2023-07-02T12:40:10;12.90;;;8.90;;
44130;SDS011;29792;48.726;9.248;2023-07-02T12:42:35;16.88;;;10.43;;
44130;SDS011;29792;48.726;9.248;2023-07-02T12:45:00;11.02;;;7.95;;
44130;SDS011;29792;48.726;9.248;2023-07-02T12:47:26;12.63;;;8.38;;
44130;SDS011;29792;48.726;9.248;2023-07-02T12:49:51;13.85;;;8.93;;
44130;SDS011;29792;48.726;9.248;2023-07-02T12:52:16;13.90;;;10.38;;
44130;SDS011;29792;48.726;9.248;2023-07-02T12:54:42;11.38;;;8.50;;
44130;SDS011;29792;48.726;9.248;2023-07-02T12:57:07;10.93;;;8.10;;
44130;SDS011;29792;48.726;9.248;2023-07-02T12:59:32;12.18;;;8.77;;
44130;SDS011;29792;48.726;9.248;2023-07-02T13:01:57;15.25;;;9.52;;
44130;SDS011;29792;48.726;9.248;2023-07-02T13:04:23;12.50;;;9.30;;
44130;SDS011;29792;48.726;9.248;2023-07-02T13:06:48;11.90;;;9.02;;
44130;SDS011;29792;48.726;9.248;2023-07-02T13:09:13;10.45;;;8.23;;
44130;SDS011;29792;48.726;9.248;2023-07-02T13:11:38;11.95;;;8.48;;
44130;SDS011;29792;48.726;9.248;2023-07-02T13:14:04;15.10;;;9.73;;
44130;SDS011;29792;48.726;9.248;2023-07-02T13:16:29;13.95;;;9.10;;
44130;SDS011;29792;48.726;9.248;2023-07-02T13:18:55;12.43;;;8.30;;
44130;SDS011;29792;48.726;9.248;2023-07-02T13:21:21;13.57;;;10.25;;
44130;SDS011;29792;48.726;9.248;2023-07-02T13:23:47;9.60;;;7.68;;
44130;SDS011;29792;48.726;9.248;2023-07-02T13:26:12;9.40;;;7.22;;
44130;SDS011;29792;48.726;9.248;2023-07-02T13:28:37;15.88;;;9.95;;
44130;SDS011;29792;48.726;9.248;2023-07-02T13:31:03;14.25;;;8.43;;
44130;SDS011;29792;48.726;9.248;2023-07-02T13:33:28;10.32;;;7.97;;
44130;SDS011;29792;48.726;9.248;2023-07-02T13:35:55;10.95;;;7.28;;
44130;SDS011;29792;48.726;9.248;2023-07-02T13:38:21;14.93;;;9.20;;
44130;SDS011;29792;48.726;9.248;2023-07-02T13:40:46;12.88;;;8.55;;
44130;SDS011;29792;48.726;9.248;2023-07-02T13:43:12;12.35;;;9.02;;
44130;SDS011;29792;48.726;9.248;2023-07-02T13:45:37;11.77;;;8.63;;
44130;SDS011;29792;48.726;9.248;2023-07-02T13:48:02;14.43;;;8.35;;
44130;SDS011;29792;48.726;9.248;2023-07-02T13:50:28;10.27;;;7.63;;
44130;SDS011;29792;48.726;9.248;2023-07-02T13:52:53;13.57;;;8.55;;
44130;SDS011;29792;48.726;9.248;2023-07-02T13:55:18;13.68;;;6.72;;
44130;SDS011;29792;48.726;9.248;2023-07-02T13:57:43;13.95;;;8.65;;
44130;SDS011;29792;48.726;9.248;2023-07-02T14:00:09;10.73;;;7.97;;
44130;SDS011;29792;48.726;9.248;2023-07-02T14:02:35;10.75;;;6.80;;
44130;SDS011;29792;48.726;9.248;2023-07-02T14:05:00;11.05;;;8.13;;
44130;SDS011;29792;48.726;9.248;2023-07-02T14:07:26;12.23;;;8.45;;
44130;SDS011;29792;48.726;9.248;2023-07-02T14:09:51;11.13;;;7.80;;
44130;SDS011;29792;48.726;9.248;2023-07-02T14:12:16;12.20;;;8.60;;
44130;SDS011;29792;48.726;9.248;2023-07-02T14:14:42;11.32;;;7.45;;
44130;SDS011;29792;48.726;9.248;2023-07-02T14:17:07;12.75;;;9.50;;
44130;SDS011;29792;48.726;9.248;2023-07-02T14:19:33;13.10;;;9.05;;
44130;SDS011;29792;48.726;9.248;2023-07-02T14:21:58;9.77;;;7.78;;
44130;SDS011;29792;48.726;9.248;2023-07-02T14:24:23;10.95;;;8.77;;
44130;SDS011;29792;48.726;9.248;2023-07-02T14:26:49;10.30;;;8.07;;
44130;SDS011;29792;48.726;9.248;2023-07-02T14:29:14;11.40;;;8.13;;
44130;SDS011;29792;48.726;9.248;2023-07-02T14:31:39;12.43;;;9.05;;
44130;SDS011;29792;48.726;9.248;2023-07-02T14:34:05;12.13;;;7.95;;
44130;SDS011;29792;48.726;9.248;2023-07-02T14:36:30;13.93;;;7.78;;
44130;SDS011;29792;48.726;9.248;2023-07-02T14:38:55;12.35;;;9.50;;
44130;SDS011;29792;48.726;9.248;2023-07-02T14:41:21;14.23;;;9.05;;
44130;SDS011;29792;48.726;9.248;2023-07-02T14:43:46;10.88;;;8.07;;